sensor_id;sensor_type;location;lat;lon;timestamp;P1;durP1;ratioP1;P2;durP2;ratioP2
18206;SDS011;9229;52.354;20.886;2023-03-05T00:02:01;12.32;;;3.90;;
18206;SDS011;9229;52.354;20.886;2023-03-05T00:07:03;12.05;;;3.75;;
18206;SDS011;9229;52.354;20.886;2023-03-05T00:12:08;10.05;;;4.85;;
18206;SDS011;9229;52.354;20.886;2023-03-05T00:17:13;6.88;;;3.67;;
18206;SDS011;9229;52.354;20.886;2023-03-05T00:22:15;6.05;;;2.78;;
18206;SDS011;9229;52.354;20.886;2023-03-05T00:27:19;20.38;;;4.63;;
18206;SDS011;9229;52.354;20.886;2023-03-05T00:32:23;12.05;;;4.18;;
18206;SDS011;9229;52.354;20.886;2023-03-05T00:37:25;8.18;;;4.35;;
18206;SDS011;9229;52.354;20.886;2023-03-05T00:42:28;13.60;;;4.53;;
18206;SDS011;9229;52.354;20.886;2023-03-05T00:47:31;13.85;;;4.35;;
18206;SDS011;9229;52.354;20.886;2023-03-05T00:52:33;10.23;;;4.25;;
18206;SDS011;9229;52.354;20.886;2023-03-05T00:57:36;4.55;;;3.75;;
18206;SDS011;9229;52.354;20.886;2023-03-05T01:02:40;11.20;;;3.90;;
18206;SDS011;9229;52.354;20.886;2023-03-05T01:07:42;6.45;;;4.63;;
18206;SDS011;9229;52.354;20.886;2023-03-05T01:12:46;6.93;;;3.95;;
18206;SDS011;9229;52.354;20.886;2023-03-05T01:17:50;6.68;;;4.18;;
18206;SDS011;9229;52.354;20.886;2023-03-05T01:22:52;9.90;;;4.25;;
18206;SDS011;9229;52.354;20.886;2023-03-05T01:27:54;16.88;;;4.85;;
18206;SDS011;9229;52.354;20.886;2023-03-05T01:32:57;9.63;;;4.40;;
18206;SDS011;9229;52.354;20.886;2023-03-05T01:37:59;8.77;;;4.40;;
18206;SDS011;9229;52.354;20.886;2023-03-05T01:43:07;10.75;;;5.28;;
18206;SDS011;9229;52.354;20.886;2023-03-05T01:48:24;15.48;;;5.43;;
18206;SDS011;9229;52.354;20.886;2023-03-05T01:53:27;7.18;;;4.13;;
18206;SDS011;9229;52.354;20.886;2023-03-05T01:58:30;22.17;;;7.80;;
18206;SDS011;9229;52.354;20.886;2023-03-05T02:03:36;14.20;;;5.88;;
18206;SDS011;9229;52.354;20.886;2023-03-05T02:08:40;16.95;;;6.05;;
18206;SDS011;9229;52.354;20.886;2023-03-05T02:13:42;14.02;;;4.70;;
18206;SDS011;9229;52.354;20.886;2023-03-05T02:18:46;10.13;;;4.72;;
18206;SDS011;9229;52.354;20.886;2023-03-05T02:23:49;3.83;;;3.60;;
18206;SDS011;9229;52.354;20.886;2023-03-05T02:28:52;10.50;;;5.13;;
18206;SDS011;9229;52.354;20.886;2023-03-05T02:33:58;7.80;;;4.22;;
18206;SDS011;9229;52.354;20.886;2023-03-05T02:39:02;12.32;;;4.80;;
18206;SDS011;9229;52.354;20.886;2023-03-05T02:44:04;13.57;;;4.55;;
18206;SDS011;9229;52.354;20.886;2023-03-05T02:49:08;5.85;;;3.60;;
18206;SDS011;9229;52.354;20.886;2023-03-05T02:54:19;10.65;;;4.63;;
18206;SDS011;9229;52.354;20.886;2023-03-05T02:59:22;8.63;;;4.35;;
18206;SDS011;9229;52.354;20.886;2023-03-05T03:04:24;9.48;;;4.95;;
18206;SDS011;9229;52.354;20.886;2023-03-05T03:09:29;6.05;;;4.32;;
18206;SDS011;9229;52.354;20.886;2023-03-05T03:14:32;5.53;;;3.63;;
18206;SDS011;9229;52.354;20.886;2023-03-05T03:19:38;8.30;;;4.88;;
18206;SDS011;9229;52.354;20.886;2023-03-05T03:24:43;12.10;;;4.25;;
18206;SDS011;9229;52.354;20.886;2023-03-05T03:29:45;4.70;;;4.30;;
18206;SDS011;9229;52.354;20.886;2023-03-05T03:34:48;5.82;;;4.68;;
18206;SDS011;9229;52.354;20.886;2023-03-05T03:39:52;9.90;;;5.18;;
18206;SDS011;9229;52.354;20.886;2023-03-05T03:44:54;10.60;;;5.20;;
18206;SDS011;9229;52.354;20.886;2023-03-05T03:49:56;15.70;;;5.60;;
18206;SDS011;9229;52.354;20.886;2023-03-05T03:55:02;11.15;;;4.80;;
18206;SDS011;9229;52.354;20.886;2023-03-05T04:00:05;6.65;;;4.63;;
18206;SDS011;9229;52.354;20.886;2023-03-05T04:05:13;13.20;;;5.38;;
18206;SDS011;9229;52.354;20.886;2023-03-05T04:10:18;6.05;;;4.55;;
18206;SDS011;9229;52.354;20.886;2023-03-05T04:15:20;8.85;;;4.00;;
18206;SDS011;9229;52.354;20.886;2023-03-05T04:20:25;7.18;;;4.60;;
18206;SDS011;9229;52.354;20.886;2023-03-05T04:25:42;6.30;;;5.03;;
18206;SDS011;9229;52.354;20.886;2023-03-05T04:30:45;19.65;;;6.03;;
18206;SDS011;9229;52.354;20.886;2023-03-05T04:35:47;7.93;;;4.80;;
18206;SDS011;9229;52.354;20.886;2023-03-05T04:40:58;6.35;;;4.53;;
18206;SDS011;9229;52.354;20.886;2023-03-05T04:46:04;13.02;;;5.68;;
18206;SDS011;9229;52.354;20.886;2023-03-05T04:51:09;8.57;;;4.35;;
18206;SDS011;9229;52.354;20.886;2023-03-05T04:56:13;9.30;;;4.82;;
18206;SDS011;9229;52.354;20.886;2023-03-05T05:01:16;5.60;;;4.82;;
18206;SDS011;9229;52.354;20.886;2023-03-05T05:06:18;14.30;;;4.50;;
18206;SDS011;9229;52.354;20.886;2023-03-05T05:11:22;11.30;;;5.18;;
18206;SDS011;9229;52.354;20.886;2023-03-05T05:16:25;5.68;;;3.90;;
18206;SDS011;9229;52.354;20.886;2023-03-05T05:21:26;6.82;;;4.78;;
18206;SDS011;9229;52.354;20.886;2023-03-05T05:26:30;12.48;;;4.50;;
18206;SDS011;9229;52.354;20.886;2023-03-05T05:31:32;5.63;;;3.92;;
18206;SDS011;9229;52.354;20.886;2023-03-05T05:36:34;5.05;;;4.38;;
18206;SDS011;9229;52.354;20.886;2023-03-05T05:41:39;3.83;;;3.42;;
18206;SDS011;9229;52.354;20.886;2023-03-05T05:46:42;8.55;;;4.45;;
18206;SDS011;9229;52.354;20.886;2023-03-05T05:51:44;10.50;;;4.45;;
18206;SDS011;9229;52.354;20.886;2023-03-05T05:56:48;8.25;;;4.90;;
18206;SDS011;9229;52.354;20.886;2023-03-05T06:01:53;10.98;;;5.22;;
18206;SDS011;9229;52.354;20.886;2023-03-05T06:06:55;10.02;;;5.03;;
18206;SDS011;9229;52.354;20.886;2023-03-05T06:12:13;10.38;;;4.95;;
18206;SDS011;9229;52.354;20.886;2023-03-05T06:17:15;4.40;;;4.00;;
18206;SDS011;9229;52.354;20.886;2023-03-05T06:22:19;8.63;;;4.90;;
18206;SDS011;9229;52.354;20.886;2023-03-05T06:27:22;7.63;;;3.97;;
18206;SDS011;9229;52.354;20.886;2023-03-05T06:32:24;8.77;;;5.03;;
18206;SDS011;9229;52.354;20.886;2023-03-05T06:37:27;10.40;;;4.03;;
18206;SDS011;9229;52.354;20.886;2023-03-05T06:42:31;3.80;;;3.50;;
18206;SDS011;9229;52.354;20.886;2023-03-05T06:47:34;7.45;;;5.38;;
18206;SDS011;9229;52.354;20.886;2023-03-05T06:52:39;4.85;;;4.00;;
18206;SDS011;9229;52.354;20.886;2023-03-05T06:57:44;9.40;;;5.07;;
18206;SDS011;9229;52.354;20.886;2023-03-05T07:02:46;6.97;;;3.63;;
18206;SDS011;9229;52.354;20.886;2023-03-05T07:07:48;8.48;;;5.60;;
18206;SDS011;9229;52.354;20.886;2023-03-05T07:13:19;6.20;;;4.03;;
18206;SDS011;9229;52.354;20.886;2023-03-05T07:18:21;10.70;;;5.13;;
18206;SDS011;9229;52.354;20.886;2023-03-05T07:23:23;7.75;;;4.85;;
18206;SDS011;9229;52.354;20.886;2023-03-05T07:28:26;6.60;;;4.55;;
18206;SDS011;9229;52.354;20.886;2023-03-05T07:33:28;9.45;;;5.32;;
18206;SDS011;9229;52.354;20.886;2023-03-05T07:38:31;8.20;;;5.40;;
18206;SDS011;9229;52.354;20.886;2023-03-05T07:43:34;9.45;;;5.30;;
18206;SDS011;9229;52.354;20.886;2023-03-05T07:48:37;6.45;;;4.18;;
18206;SDS011;9229;52.354;20.886;2023-03-05T07:53:39;7.53;;;3.83;;
18206;SDS011;9229;52.354;20.886;2023-03-05T07:58:43;7.00;;;4.20;;
18206;SDS011;9229;52.354;20.886;2023-03-05T08:03:46;10.50;;;4.00;;
18206;SDS011;9229;52.354;20.886;2023-03-05T08:08:49;9.52;;;4.75;;
18206;SDS011;9229;52.354;20.886;2023-03-05T08:13:52;8.05;;;4.65;;
18206;SDS011;9229;52.354;20.886;2023-03-05T08:18:58;11.52;;;4.32;;
18206;SDS011;9229;52.354;20.886;2023-03-05T08:24:03;4.78;;;4.22;;
18206;SDS011;9229;52.354;20.886;2023-03-05T08:29:10;7.78;;;4.72;;
18206;SDS011;9229;52.354;20.886;2023-03-05T08:34:13;8.60;;;4.88;;
18206;SDS011;9229;52.354;20.886;2023-03-05T08:39:16;7.90;;;4.68;;
18206;SDS011;9229;52.354;20.886;2023-03-05T08:44:20;10.52;;;5.38;;
18206;SDS011;9229;52.354;20.886;2023-03-05T08:49:22;11.13;;;5.13;;
18206;SDS011;9229;52.354;20.886;2023-03-05T08:54:24;8.50;;;5.57;;
18206;SDS011;9229;52.354;20.886;2023-03-05T08:59:28;6.45;;;4.60;;
18206;SDS011;9229;52.354;20.886;2023-03-05T09:04:31;7.13;;;4.57;;
18206;SDS011;9229;52.354;20.886;2023-03-05T09:09:33;8.63;;;5.18;;
18206;SDS011;9229;52.354;20.886;2023-03-05T09:14:37;9.02;;;4.85;;
18206;SDS011;9229;52.354;20.886;2023-03-05T09:19:39;12.25;;;4.60;;
18206;SDS011;9229;52.354;20.886;2023-03-05T09:24:41;12.38;;;5.22;;
18206;SDS011;9229;52.354;20.886;2023-03-05T09:29:45;8.18;;;5.57;;
18206;SDS011;9229;52.354;20.886;2023-03-05T09:34:47;13.18;;;5.47;;
18206;SDS011;9229;52.354;20.886;2023-03-05T09:39:49;17.25;;;5.60;;
18206;SDS011;9229;52.354;20.886;2023-03-05T09:44:54;13.27;;;6.35;;
18206;SDS011;9229;52.354;20.886;2023-03-05T09:50:09;9.40;;;5.90;;
18206;SDS011;9229;52.354;20.886;2023-03-05T09:55:18;11.20;;;5.18;;
18206;SDS011;9229;52.354;20.886;2023-03-05T10:00:29;5.03;;;4.55;;
18206;SDS011;9229;52.354;20.886;2023-03-05T10:05:42;9.23;;;4.78;;
18206;SDS011;9229;52.354;20.886;2023-03-05T10:10:52;8.35;;;5.47;;
18206;SDS011;9229;52.354;20.886;2023-03-05T10:15:58;9.35;;;4.88;;
18206;SDS011;9229;52.354;20.886;2023-03-05T10:21:07;11.82;;;5.15;;
18206;SDS011;9229;52.354;20.886;2023-03-05T10:26:17;9.02;;;5.07;;
18206;SDS011;9229;52.354;20.886;2023-03-05T10:31:37;8.45;;;5.20;;
18206;SDS011;9229;52.354;20.886;2023-03-05T10:36:47;6.15;;;3.92;;
18206;SDS011;9229;52.354;20.886;2023-03-05T10:42:01;9.88;;;4.65;;
18206;SDS011;9229;52.354;20.886;2023-03-05T10:47:15;11.95;;;4.90;;
18206;SDS011;9229;52.354;20.886;2023-03-05T10:52:30;11.73;;;5.70;;
18206;SDS011;9229;52.354;20.886;2023-03-05T10:57:39;14.68;;;7.05;;
18206;SDS011;9229;52.354;20.886;2023-03-05T11:02:53;9.27;;;6.97;;
18206;SDS011;9229;52.354;20.886;2023-03-05T11:07:57;12.52;;;7.22;;
18206;SDS011;9229;52.354;20.886;2023-03-05T11:12:59;12.32;;;6.50;;
18206;SDS011;9229;52.354;20.886;2023-03-05T11:18:13;10.95;;;6.85;;
18206;SDS011;9229;52.354;20.886;2023-03-05T11:23:19;8.25;;;4.85;;
18206;SDS011;9229;52.354;20.886;2023-03-05T11:28:24;6.53;;;3.65;;
18206;SDS011;9229;52.354;20.886;2023-03-05T11:33:30;4.43;;;3.20;;
18206;SDS011;9229;52.354;20.886;2023-03-05T11:38:32;4.22;;;3.85;;
18206;SDS011;9229;52.354;20.886;2023-03-05T11:43:44;5.32;;;4.75;;
18206;SDS011;9229;52.354;20.886;2023-03-05T11:48:47;7.90;;;4.70;;
18206;SDS011;9229;52.354;20.886;2023-03-05T11:53:52;6.68;;;4.60;;
18206;SDS011;9229;52.354;20.886;2023-03-05T11:59:00;4.20;;;3.67;;
18206;SDS011;9229;52.354;20.886;2023-03-05T12:04:08;3.88;;;3.60;;
18206;SDS011;9229;52.354;20.886;2023-03-05T12:09:13;3.92;;;3.47;;
18206;SDS011;9229;52.354;20.886;2023-03-05T12:14:22;8.60;;;4.00;;
18206;SDS011;9229;52.354;20.886;2023-03-05T12:19:32;9.68;;;4.72;;
18206;SDS011;9229;52.354;20.886;2023-03-05T12:24:41;11.30;;;5.82;;
18206;SDS011;9229;52.354;20.886;2023-03-05T12:29:44;9.38;;;4.93;;
18206;SDS011;9229;52.354;20.886;2023-03-05T12:34:51;9.57;;;5.53;;
18206;SDS011;9229;52.354;20.886;2023-03-05T12:39:57;22.15;;;6.13;;
18206;SDS011;9229;52.354;20.886;2023-03-05T12:55:55;12.10;;;7.20;;
18206;SDS011;9229;52.354;20.886;2023-03-05T13:01:01;10.73;;;6.95;;
18206;SDS011;9229;52.354;20.886;2023-03-05T13:06:21;16.95;;;9.05;;
18206;SDS011;9229;52.354;20.886;2023-03-05T13:11:26;19.60;;;7.60;;
18206;SDS011;9229;52.354;20.886;2023-03-05T13:16:37;20.83;;;7.80;;
18206;SDS011;9229;52.354;20.886;2023-03-05T13:21:42;10.18;;;4.63;;
18206;SDS011;9229;52.354;20.886;2023-03-05T13:26:44;11.00;;;5.63;;
18206;SDS011;9229;52.354;20.886;2023-03-05T13:31:47;10.88;;;5.22;;
18206;SDS011;9229;52.354;20.886;2023-03-05T13:36:54;8.15;;;5.03;;
18206;SDS011;9229;52.354;20.886;2023-03-05T13:41:59;7.60;;;4.03;;
18206;SDS011;9229;52.354;20.886;2023-03-05T13:47:07;4.65;;;4.25;;
18206;SDS011;9229;52.354;20.886;2023-03-05T13:52:23;6.47;;;4.97;;
18206;SDS011;9229;52.354;20.886;2023-03-05T13:57:33;18.70;;;9.27;;
18206;SDS011;9229;52.354;20.886;2023-03-05T14:02:40;7.38;;;4.93;;
18206;SDS011;9229;52.354;20.886;2023-03-05T14:07:45;5.90;;;4.22;;
18206;SDS011;9229;52.354;20.886;2023-03-05T14:12:49;6.25;;;4.38;;
18206;SDS011;9229;52.354;20.886;2023-03-05T14:17:52;5.70;;;4.80;;
18206;SDS011;9229;52.354;20.886;2023-03-05T14:23:32;10.55;;;5.60;;
18206;SDS011;9229;52.354;20.886;2023-03-05T14:28:35;11.80;;;4.95;;
18206;SDS011;9229;52.354;20.886;2023-03-05T14:33:38;7.95;;;4.85;;
18206;SDS011;9229;52.354;20.886;2023-03-05T14:38:46;6.30;;;4.57;;
18206;SDS011;9229;52.354;20.886;2023-03-05T14:43:48;9.68;;;6.00;;
18206;SDS011;9229;52.354;20.886;2023-03-05T14:48:50;5.70;;;5.20;;
18206;SDS011;9229;52.354;20.886;2023-03-05T14:53:54;10.82;;;5.00;;
18206;SDS011;9229;52.354;20.886;2023-03-05T14:58:59;11.38;;;5.60;;
18206;SDS011;9229;52.354;20.886;2023-03-05T15:04:02;9.27;;;5.60;;
18206;SDS011;9229;52.354;20.886;2023-03-05T15:09:05;11.20;;;6.22;;
18206;SDS011;9229;52.354;20.886;2023-03-05T15:14:08;8.95;;;5.60;;
18206;SDS011;9229;52.354;20.886;2023-03-05T15:19:11;8.60;;;6.22;;
18206;SDS011;9229;52.354;20.886;2023-03-05T15:24:15;7.80;;;6.30;;
18206;SDS011;9229;52.354;20.886;2023-03-05T15:29:17;8.65;;;6.65;;
18206;SDS011;9229;52.354;20.886;2023-03-05T15:34:19;18.50;;;9.27;;
18206;SDS011;9229;52.354;20.886;2023-03-05T15:39:23;15.50;;;8.73;;
18206;SDS011;9229;52.354;20.886;2023-03-05T15:44:27;16.75;;;8.18;;
18206;SDS011;9229;52.354;20.886;2023-03-05T15:49:30;9.70;;;6.75;;
18206;SDS011;9229;52.354;20.886;2023-03-05T15:54:35;11.15;;;7.70;;
18206;SDS011;9229;52.354;20.886;2023-03-05T15:59:37;13.73;;;7.05;;
18206;SDS011;9229;52.354;20.886;2023-03-05T16:04:39;63.78;;;20.33;;
18206;SDS011;9229;52.354;20.886;2023-03-05T16:09:45;22.23;;;10.38;;
18206;SDS011;9229;52.354;20.886;2023-03-05T16:14:50;29.00;;;13.05;;
18206;SDS011;9229;52.354;20.886;2023-03-05T16:19:53;13.32;;;8.40;;
18206;SDS011;9229;52.354;20.886;2023-03-05T16:24:58;16.48;;;9.10;;
18206;SDS011;9229;52.354;20.886;2023-03-05T16:30:02;13.40;;;7.93;;
18206;SDS011;9229;52.354;20.886;2023-03-05T16:35:06;17.88;;;9.35;;
18206;SDS011;9229;52.354;20.886;2023-03-05T16:40:12;18.40;;;10.32;;
18206;SDS011;9229;52.354;20.886;2023-03-05T16:45:16;21.45;;;10.27;;
18206;SDS011;9229;52.354;20.886;2023-03-05T16:50:19;22.17;;;11.05;;
18206;SDS011;9229;52.354;20.886;2023-03-05T16:55:23;21.17;;;10.38;;
18206;SDS011;9229;52.354;20.886;2023-03-05T17:00:27;18.17;;;9.60;;
18206;SDS011;9229;52.354;20.886;2023-03-05T17:05:29;17.48;;;9.15;;
18206;SDS011;9229;52.354;20.886;2023-03-05T17:10:33;17.38;;;9.18;;
18206;SDS011;9229;52.354;20.886;2023-03-05T17:15:35;13.73;;;8.63;;
18206;SDS011;9229;52.354;20.886;2023-03-05T17:20:40;15.15;;;9.57;;
18206;SDS011;9229;52.354;20.886;2023-03-05T17:25:44;30.65;;;13.80;;
18206;SDS011;9229;52.354;20.886;2023-03-05T17:30:47;47.83;;;17.75;;
18206;SDS011;9229;52.354;20.886;2023-03-05T17:35:49;46.22;;;19.80;;
18206;SDS011;9229;52.354;20.886;2023-03-05T17:40:53;53.00;;;20.52;;
18206;SDS011;9229;52.354;20.886;2023-03-05T17:45:56;43.97;;;17.88;;
18206;SDS011;9229;52.354;20.886;2023-03-05T17:51:00;28.75;;;14.80;;
18206;SDS011;9229;52.354;20.886;2023-03-05T17:56:06;38.33;;;14.45;;
18206;SDS011;9229;52.354;20.886;2023-03-05T18:01:11;32.47;;;13.57;;
18206;SDS011;9229;52.354;20.886;2023-03-05T18:06:23;27.65;;;12.85;;
18206;SDS011;9229;52.354;20.886;2023-03-05T18:11:27;34.03;;;13.65;;
18206;SDS011;9229;52.354;20.886;2023-03-05T18:16:29;30.83;;;12.20;;
18206;SDS011;9229;52.354;20.886;2023-03-05T18:21:32;22.90;;;9.55;;
18206;SDS011;9229;52.354;20.886;2023-03-05T18:26:39;21.48;;;10.07;;
18206;SDS011;9229;52.354;20.886;2023-03-05T18:31:42;43.63;;;13.15;;
18206;SDS011;9229;52.354;20.886;2023-03-05T18:36:44;30.80;;;12.07;;
18206;SDS011;9229;52.354;20.886;2023-03-05T18:41:51;31.05;;;10.38;;
18206;SDS011;9229;52.354;20.886;2023-03-05T18:46:55;29.55;;;10.90;;
18206;SDS011;9229;52.354;20.886;2023-03-05T18:52:01;27.52;;;11.52;;
18206;SDS011;9229;52.354;20.886;2023-03-05T18:57:05;39.97;;;14.30;;
18206;SDS011;9229;52.354;20.886;2023-03-05T19:02:09;25.80;;;11.52;;
18206;SDS011;9229;52.354;20.886;2023-03-05T19:07:13;41.85;;;14.57;;
18206;SDS011;9229;52.354;20.886;2023-03-05T19:12:18;41.95;;;13.27;;
18206;SDS011;9229;52.354;20.886;2023-03-05T19:17:20;32.67;;;14.65;;
18206;SDS011;9229;52.354;20.886;2023-03-05T19:22:23;28.20;;;12.27;;
18206;SDS011;9229;52.354;20.886;2023-03-05T19:27:32;35.13;;;14.07;;
18206;SDS011;9229;52.354;20.886;2023-03-05T19:32:34;27.27;;;12.43;;
18206;SDS011;9229;52.354;20.886;2023-03-05T19:37:36;39.97;;;12.82;;
18206;SDS011;9229;52.354;20.886;2023-03-05T19:42:40;39.50;;;13.50;;
18206;SDS011;9229;52.354;20.886;2023-03-05T19:47:42;30.15;;;12.30;;
18206;SDS011;9229;52.354;20.886;2023-03-05T19:52:52;34.05;;;13.52;;
18206;SDS011;9229;52.354;20.886;2023-03-05T19:57:58;37.25;;;14.43;;
18206;SDS011;9229;52.354;20.886;2023-03-05T20:03:03;47.90;;;18.40;;
18206;SDS011;9229;52.354;20.886;2023-03-05T20:08:05;33.38;;;15.82;;
18206;SDS011;9229;52.354;20.886;2023-03-05T20:13:09;31.80;;;13.18;;
18206;SDS011;9229;52.354;20.886;2023-03-05T20:18:11;28.42;;;13.35;;
18206;SDS011;9229;52.354;20.886;2023-03-05T20:23:14;36.20;;;15.15;;
18206;SDS011;9229;52.354;20.886;2023-03-05T20:28:18;30.95;;;13.60;;
18206;SDS011;9229;52.354;20.886;2023-03-05T20:33:25;36.22;;;13.05;;
18206;SDS011;9229;52.354;20.886;2023-03-05T20:38:29;33.97;;;14.57;;
18206;SDS011;9229;52.354;20.886;2023-03-05T20:43:34;27.42;;;13.10;;
18206;SDS011;9229;52.354;20.886;2023-03-05T20:48:38;32.95;;;14.23;;
18206;SDS011;9229;52.354;20.886;2023-03-05T20:53:40;28.73;;;13.75;;
18206;SDS011;9229;52.354;20.886;2023-03-05T21:04:55;34.88;;;13.55;;
18206;SDS011;9229;52.354;20.886;2023-03-05T21:09:57;32.40;;;15.70;;
18206;SDS011;9229;52.354;20.886;2023-03-05T21:14:59;34.83;;;14.48;;
18206;SDS011;9229;52.354;20.886;2023-03-05T21:20:04;36.08;;;16.20;;
18206;SDS011;9229;52.354;20.886;2023-03-05T21:25:08;34.35;;;14.73;;
18206;SDS011;9229;52.354;20.886;2023-03-05T21:30:20;38.58;;;16.33;;
18206;SDS011;9229;52.354;20.886;2023-03-05T21:35:24;38.53;;;14.00;;
18206;SDS011;9229;52.354;20.886;2023-03-05T21:40:26;41.50;;;15.30;;
18206;SDS011;9229;52.354;20.886;2023-03-05T21:45:28;37.30;;;14.15;;
18206;SDS011;9229;52.354;20.886;2023-03-05T21:50:32;32.70;;;13.40;;
18206;SDS011;9229;52.354;20.886;2023-03-05T21:55:36;38.28;;;14.35;;
18206;SDS011;9229;52.354;20.886;2023-03-05T22:00:45;30.13;;;14.30;;
18206;SDS011;9229;52.354;20.886;2023-03-05T22:05:49;35.80;;;15.93;;
18206;SDS011;9229;52.354;20.886;2023-03-05T22:10:51;38.03;;;15.10;;
18206;SDS011;9229;52.354;20.886;2023-03-05T22:15:54;30.85;;;16.05;;
18206;SDS011;9229;52.354;20.886;2023-03-05T22:21:02;35.33;;;15.38;;
18206;SDS011;9229;52.354;20.886;2023-03-05T22:26:06;38.42;;;15.35;;
18206;SDS011;9229;52.354;20.886;2023-03-05T22:31:08;41.13;;;15.98;;
18206;SDS011;9229;52.354;20.886;2023-03-05T22:36:13;35.53;;;15.45;;
18206;SDS011;9229;52.354;20.886;2023-03-05T22:41:15;34.42;;;13.98;;
18206;SDS011;9229;52.354;20.886;2023-03-05T22:46:19;37.30;;;13.90;;
18206;SDS011;9229;52.354;20.886;2023-03-05T22:51:27;32.40;;;13.60;;
18206;SDS011;9229;52.354;20.886;2023-03-05T22:56:29;30.02;;;13.70;;
18206;SDS011;9229;52.354;20.886;2023-03-05T23:01:31;26.67;;;13.25;;
18206;SDS011;9229;52.354;20.886;2023-03-05T23:06:35;40.42;;;14.75;;
18206;SDS011;9229;52.354;20.886;2023-03-05T23:11:37;27.67;;;14.48;;
18206;SDS011;9229;52.354;20.886;2023-03-05T23:16:39;30.05;;;14.18;;
18206;SDS011;9229;52.354;20.886;2023-03-05T23:21:44;25.65;;;13.10;;
18206;SDS011;9229;52.354;20.886;2023-03-05T23:26:46;28.08;;;12.45;;
18206;SDS011;9229;52.354;20.886;2023-03-05T23:31:48;34.75;;;13.68;;
18206;SDS011;9229;52.354;20.886;2023-03-05T23:36:58;30.17;;;13.55;;
18206;SDS011;9229;52.354;20.886;2023-03-05T23:42:01;29.85;;;12.55;;
18206;SDS011;9229;52.354;20.886;2023-03-05T23:47:03;39.00;;;14.43;;
18206;SDS011;9229;52.354;20.886;2023-03-05T23:52:07;30.42;;;12.45;;
18206;SDS011;9229;52.354;20.886;2023-03-05T23:57:09;34.95;;;15.07;;
